Baskin, Louisiana
Current Conditions -  °F | °C
As of 6:53 AM on Thursday 30 Oct 2014 (Local Time) from KMLU Reporting Station
Clear Clear  
Wind Chill: 44°   Ceiling: Unl
Heat Index: 44°   Visibility: 10mi
Dew Point: 42°   Wind: 0mph
Humidity: 93%   Direction: NA
Pressure: 30.16"   Gusts: NA
Location:  32.26°N, 91.75°W
Report Text: KMLU 301153Z 00000KT 10SM CLR 07/06 A3016 RMK AO2 SLP213 T00670056 10094 20067 53005
Loading
Personal Weather Stations






























Interactive Weather Map
Tropical Storm Tracking
New forecast layout! Learn more

10-Day Weather Forecast

Advertisements
Track Severe Weather on mobile